Time;durP1;ratioP1;P1;durP2;ratioP2;P2;SDS_P1;SDS_P2;PMS_P1;PMS_P2;Temp;Humidity;BMP_temperature;BMP_pressure;BME280_temperature;BME280_humidity;BME280_pressure;Samples;Min_cycle;Max_cycle;Signal;HPM_P1;HPM_P2
2023/02/23 00:00:28;;;;;;;15.47;10.60;;;19.40;61.70;;;;;;6346092;22;20434;-82
2023/02/23 00:02:57;;;;;;;24.23;10.60;;;19.40;61.80;;;;;;6345802;22;20431;-82
2023/02/23 00:05:27;;;;;;;13.07;9.57;;;19.40;61.90;;;;;;6345748;22;20431;-82
2023/02/23 00:07:57;;;;;;;16.30;10.17;;;19.40;61.90;;;;;;6345980;22;20403;-82
2023/02/23 00:10:29;;;;;;;18.77;10.23;;;19.40;61.90;;;;;;6346669;22;20440;-82
2023/02/23 00:12:58;;;;;;;16.90;10.63;;;19.40;62.00;;;;;;6346191;22;20398;-82
2023/02/23 00:15:26;;;;;;;20.03;9.50;;;19.30;61.90;;;;;;6346488;22;20438;-83
2023/02/23 00:17:55;;;;;;;19.67;10.40;;;19.30;61.90;;;;;;6346189;22;20403;-84
2023/02/23 00:20:26;;;;;;;16.93;9.80;;;19.40;62.20;;;;;;6345762;22;20428;-83
2023/02/23 00:22:54;;;;;;;16.77;9.63;;;19.30;62.10;;;;;;6346683;22;20454;-84
2023/02/23 00:25:29;;;;;;;17.50;9.90;;;19.30;62.10;;;;;;6346231;22;20399;-83
2023/02/23 00:27:58;;;;;;;18.93;9.57;;;19.30;62.20;;;;;;6346925;22;20427;-82
2023/02/23 00:30:26;;;;;;;21.63;10.13;;;19.30;62.20;;;;;;6345512;22;20462;-83
2023/02/23 00:32:54;;;;;;;18.57;10.07;;;19.30;62.20;;;;;;6346343;22;20450;-82
2023/02/23 00:35:23;;;;;;;16.47;9.57;;;19.30;62.40;;;;;;6345769;22;20404;-82
2023/02/23 00:37:51;;;;;;;17.60;9.70;;;19.30;62.30;;;;;;6346023;22;20422;-83
2023/02/23 00:40:22;;;;;;;16.80;9.63;;;19.30;62.30;;;;;;6345334;22;20433;-83
2023/02/23 00:42:52;;;;;;;20.00;9.57;;;19.30;62.40;;;;;;6345772;22;20455;-82
2023/02/23 00:45:20;;;;;;;15.63;9.70;;;19.30;62.40;;;;;;6346161;22;20403;-82
2023/02/23 00:47:48;;;;;;;20.57;10.40;;;19.30;62.40;;;;;;6347185;22;20498;-82
2023/02/23 00:50:17;;;;;;;15.63;10.33;;;19.30;62.40;;;;;;6350009;22;20467;-82
2023/02/23 00:52:45;;;;;;;16.40;9.53;;;19.30;62.40;;;;;;6348112;22;20475;-85
2023/02/23 00:55:18;;;;;;;17.27;9.90;;;19.30;62.60;;;;;;6347881;22;20941;-84
2023/02/23 00:57:46;;;;;;;15.53;9.33;;;19.30;62.40;;;;;;6346973;22;20403;-84
2023/02/23 01:00:19;;;;;;;16.80;10.03;;;19.30;62.40;;;;;;6346617;22;20458;-84
2023/02/23 01:02:47;;;;;;;19.80;10.00;;;19.30;62.50;;;;;;6345660;22;20400;-83
2023/02/23 01:05:16;;;;;;;15.30;9.60;;;19.30;62.50;;;;;;6346426;22;20924;-82
2023/02/23 01:07:46;;;;;;;15.80;9.53;;;19.20;62.40;;;;;;6345553;22;20403;-84
2023/02/23 01:10:22;;;;;;;15.57;9.20;;;19.20;62.50;;;;;;6346012;22;20388;-83
2023/02/23 01:12:51;;;;;;;16.30;10.00;;;19.20;62.60;;;;;;6346757;22;20443;-83
2023/02/23 01:15:20;;;;;;;21.87;9.70;;;19.20;62.70;;;;;;6347826;22;20399;-84
2023/02/23 01:17:49;;;;;;;14.40;9.93;;;19.20;62.50;;;;;;6349685;22;20414;-84
2023/02/23 01:20:18;;;;;;;17.23;9.80;;;19.20;62.50;;;;;;6347934;22;20435;-83
2023/02/23 01:22:46;;;;;;;17.43;9.40;;;19.20;62.70;;;;;;6346847;22;20467;-82
2023/02/23 01:25:15;;;;;;;20.03;9.20;;;19.20;62.70;;;;;;6347027;22;20476;-83
2023/02/23 01:27:43;;;;;;;13.60;8.97;;;19.20;62.50;;;;;;6346673;22;20427;-83
2023/02/23 01:30:13;;;;;;;14.60;9.57;;;19.20;62.70;;;;;;6349272;22;20407;-83
2023/02/23 01:32:43;;;;;;;21.80;10.57;;;19.20;62.80;;;;;;6347278;22;20474;-83
2023/02/23 01:35:12;;;;;;;18.20;9.57;;;19.20;63.50;;;;;;6347031;22;20474;-84
2023/02/23 01:45:01;;;;;;;14.07;9.03;;;19.10;62.80;;;;;;6283741;22;20433;-84
2023/02/23 01:47:29;;;;;;;15.17;9.30;;;19.10;62.90;;;;;;6348403;22;20419;-84
2023/02/23 01:50:15;;;;;;;15.87;9.37;;;19.10;63.10;;;;;;6350320;22;20406;-83
2023/02/23 01:53:04;;;;;;;14.33;9.40;;;19.10;62.90;;;;;;6350093;22;20424;-84
2023/02/23 01:56:11;;;;;;;15.07;9.40;;;19.10;62.90;;;;;;6362162;22;20395;-84
2023/02/23 01:59:20;;;;;;;13.23;8.87;;;19.10;63.00;;;;;;6350082;22;20463;-84
2023/02/23 02:02:20;;;;;;;17.07;9.80;;;19.10;63.00;;;;;;6357956;22;20435;-85
2023/02/23 02:11:38;;;;;;;16.40;8.83;;;19.20;63.00;;;;;;6344922;22;20513;-84
2023/02/23 02:14:32;;;;;;;15.40;9.83;;;19.10;63.10;;;;;;6348765;22;20495;-83
2023/02/23 02:17:24;;;;;;;12.50;9.33;;;19.10;63.20;;;;;;6347477;22;20417;-84
2023/02/23 02:20:36;;;;;;;14.43;9.63;;;19.10;63.10;;;;;;6347123;22;20395;-84
2023/02/23 02:23:44;;;;;;;17.20;9.83;;;19.10;63.20;;;;;;6347753;22;20432;-84
2023/02/23 02:30:17;;;;;;;15.83;10.23;;;19.00;63.20;;;;;;6342169;22;20489;-85
2023/02/23 02:33:30;;;;;;;15.87;10.37;;;19.00;63.10;;;;;;6281156;22;20424;-84
2023/02/23 02:36:35;;;;;;;19.13;10.20;;;19.00;63.00;;;;;;6282322;22;20400;-85
2023/02/23 02:39:22;;;;;;;13.43;9.77;;;19.00;63.00;;;;;;6348476;22;20411;-84
2023/02/23 02:42:06;;;;;;;14.90;10.00;;;18.90;63.00;;;;;;6347393;22;20427;-84
2023/02/23 02:44:45;;;;;;;15.00;10.50;;;19.00;63.10;;;;;;6347995;22;20506;-83
2023/02/23 02:47:57;;;;;;;17.80;10.77;;;19.00;63.20;;;;;;6347892;22;20400;-84
2023/02/23 02:51:08;;;;;;;15.53;10.20;;;19.00;63.20;;;;;;6345034;22;20418;-83
2023/02/23 02:53:54;;;;;;;19.33;9.50;;;19.00;63.10;;;;;;6346535;22;20423;-84
2023/02/23 02:56:29;;;;;;;17.53;9.50;;;19.00;63.10;;;;;;6346659;22;20402;-83
2023/02/23 02:58:58;;;;;;;15.53;9.90;;;18.90;63.10;;;;;;6345842;22;20474;-83
2023/02/23 04:17:49;;;;;;;22.10;13.77;;;18.80;63.90;;;;;;6345339;22;20410;-83
2023/02/23 04:20:18;;;;;;;15.77;11.67;;;18.80;64.20;;;;;;6344951;22;20463;-84
2023/02/23 04:22:47;;;;;;;19.87;13.43;;;18.80;64.10;;;;;;6345054;22;20427;-86
2023/02/23 04:25:15;;;;;;;21.10;13.33;;;18.80;63.90;;;;;;6345438;22;20417;-84
2023/02/23 04:27:44;;;;;;;21.77;14.20;;;18.80;63.90;;;;;;6345656;22;20399;-85
2023/02/23 04:30:12;;;;;;;19.37;13.17;;;18.80;64.10;;;;;;6345839;22;20404;-84
2023/02/23 04:32:43;;;;;;;19.77;13.63;;;18.80;63.90;;;;;;6345778;22;20400;-84
2023/02/23 04:35:12;;;;;;;20.13;12.53;;;18.80;63.90;;;;;;6345446;22;20410;-84
2023/02/23 04:37:42;;;;;;;17.67;12.13;;;18.80;64.00;;;;;;6345339;22;20407;-84
2023/02/23 04:40:10;;;;;;;20.40;12.47;;;18.80;63.90;;;;;;6345965;22;20407;-83
2023/02/23 04:42:39;;;;;;;17.07;11.70;;;18.80;64.10;;;;;;6344772;22;20531;-84
2023/02/23 04:45:08;;;;;;;22.60;13.23;;;18.80;63.90;;;;;;6345873;22;20435;-84
2023/02/23 04:47:36;;;;;;;19.37;13.03;;;18.80;64.00;;;;;;6346604;22;20503;-84
2023/02/23 04:50:05;;;;;;;22.07;13.07;;;18.80;64.10;;;;;;6345333;22;20414;-84
2023/02/23 04:52:33;;;;;;;19.20;12.23;;;18.80;63.90;;;;;;6346591;22;20406;-84
2023/02/23 04:55:03;;;;;;;18.80;11.83;;;18.80;64.10;;;;;;6346284;22;20425;-84
2023/02/23 04:57:31;;;;;;;18.57;12.63;;;18.80;64.10;;;;;;6346624;22;20404;-85
2023/02/23 05:00:00;;;;;;;20.57;12.67;;;18.80;64.00;;;;;;6347060;22;20395;-85
2023/02/23 05:02:28;;;;;;;24.23;13.03;;;18.80;64.10;;;;;;6347734;22;20485;-85
2023/02/23 05:04:57;;;;;;;19.20;12.10;;;18.80;64.10;;;;;;6347117;22;20410;-85
2023/02/23 05:07:25;;;;;;;17.40;12.47;;;18.80;64.00;;;;;;6347290;22;20431;-85
2023/02/23 05:09:53;;;;;;;18.53;11.90;;;18.80;64.10;;;;;;6347883;22;20404;-84
2023/02/23 05:12:22;;;;;;;17.57;11.30;;;18.70;64.00;;;;;;6358467;22;20407;-84
2023/02/23 05:14:51;;;;;;;18.33;11.13;;;18.80;64.20;;;;;;6343896;22;20424;-83
2023/02/23 05:17:19;;;;;;;17.83;11.70;;;18.70;64.20;;;;;;6342650;22;20404;-84
2023/02/23 05:19:47;;;;;;;18.27;11.37;;;18.80;64.10;;;;;;6340709;22;20404;-84
2023/02/23 05:22:15;;;;;;;18.77;11.60;;;18.80;64.20;;;;;;6341706;22;20427;-84
2023/02/23 05:24:43;;;;;;;20.43;12.10;;;18.80;64.30;;;;;;6342578;22;20423;-84
2023/02/23 05:27:12;;;;;;;17.83;11.97;;;18.80;64.20;;;;;;6342349;22;20922;-83
2023/02/23 05:29:42;;;;;;;18.87;12.00;;;18.70;64.20;;;;;;6341724;22;20406;-83
2023/02/23 05:32:10;;;;;;;18.50;11.10;;;18.70;64.10;;;;;;6344930;22;20400;-84
2023/02/23 05:34:39;;;;;;;18.07;11.87;;;18.70;64.10;;;;;;6342507;22;20419;-83
2023/02/23 05:37:07;;;;;;;18.03;11.80;;;18.70;64.10;;;;;;6343586;22;20400;-84
2023/02/23 05:39:35;;;;;;;18.50;11.37;;;18.70;64.10;;;;;;6345113;22;20387;-85
2023/02/23 05:42:04;;;;;;;18.80;11.87;;;18.70;64.20;;;;;;6345248;22;20392;-84
2023/02/23 05:44:31;;;;;;;17.40;11.70;;;18.70;64.30;;;;;;6343434;22;20431;-83
2023/02/23 05:47:01;;;;;;;20.67;12.40;;;18.70;64.20;;;;;;6343957;22;20466;-84
2023/02/23 05:49:29;;;;;;;18.13;11.60;;;18.70;64.20;;;;;;6343391;22;20431;-84
2023/02/23 05:51:57;;;;;;;19.17;12.27;;;18.70;64.20;;;;;;6343630;22;20435;-84
2023/02/23 05:54:26;;;;;;;17.20;11.50;;;18.70;64.30;;;;;;6344872;22;20427;-85
2023/02/23 05:56:54;;;;;;;19.63;12.10;;;18.70;64.20;;;;;;6344235;22;20404;-84
2023/02/23 05:59:22;;;;;;;17.63;10.83;;;18.70;64.30;;;;;;6345244;22;20427;-84
2023/02/23 06:01:50;;;;;;;15.43;11.03;;;18.70;64.30;;;;;;6344882;22;20403;-84
2023/02/23 06:04:22;;;;;;;18.40;11.77;;;18.70;64.10;;;;;;6345312;22;20435;-83
2023/02/23 06:06:50;;;;;;;15.57;10.50;;;18.70;64.20;;;;;;6346161;22;20396;-85
2023/02/23 06:09:17;;;;;;;17.00;11.00;;;18.70;64.30;;;;;;6345248;22;20407;-84
2023/02/23 06:11:45;;;;;;;17.67;11.37;;;18.70;64.30;;;;;;6344044;22;20403;-84
2023/02/23 06:14:15;;;;;;;16.90;11.17;;;18.70;64.30;;;;;;6344263;22;20439;-84
2023/02/23 06:16:43;;;;;;;15.53;11.17;;;18.70;64.40;;;;;;6345374;22;20403;-83
2023/02/23 06:19:12;;;;;;;17.97;11.33;;;18.70;64.20;;;;;;6348250;22;20408;-85
2023/02/23 06:21:42;;;;;;;18.60;11.03;;;18.60;64.30;;;;;;6346314;22;20403;-85
2023/02/23 06:24:11;;;;;;;18.47;11.23;;;18.60;64.30;;;;;;6346653;22;20526;-85
2023/02/23 06:26:39;;;;;;;17.60;11.47;;;18.60;64.30;;;;;;6346442;22;20411;-85
2023/02/23 06:29:10;;;;;;;19.70;12.30;;;18.60;64.40;;;;;;6344978;22;20411;-85
2023/02/23 06:31:38;;;;;;;18.90;11.43;;;18.60;64.30;;;;;;6345034;22;20399;-85
2023/02/23 06:34:07;;;;;;;16.00;11.07;;;18.60;64.30;;;;;;6345340;22;20412;-85
2023/02/23 06:36:34;;;;;;;16.30;10.93;;;18.60;65.00;;;;;;6343673;22;20431;-85
2023/02/23 06:39:04;;;;;;;15.60;10.30;;;18.60;64.40;;;;;;6344027;22;20411;-85
2023/02/23 06:41:32;;;;;;;16.77;11.30;;;18.70;64.40;;;;;;6344539;22;20403;-84
2023/02/23 06:44:00;;;;;;;19.70;12.23;;;18.60;64.50;;;;;;6344024;22;20435;-84
2023/02/23 06:46:28;;;;;;;18.13;12.37;;;18.60;64.40;;;;;;6344796;22;20414;-84
2023/02/23 06:48:58;;;;;;;18.80;11.90;;;18.60;64.40;;;;;;6344711;22;20407;-83
2023/02/23 06:51:26;;;;;;;17.73;11.37;;;18.60;64.50;;;;;;6346532;22;20427;-84
2023/02/23 06:53:54;;;;;;;17.40;10.90;;;18.60;64.30;;;;;;6344595;22;20446;-85
2023/02/23 06:56:24;;;;;;;21.27;12.30;;;18.60;64.60;;;;;;6344212;22;20998;-85
2023/02/23 06:58:52;;;;;;;18.47;12.07;;;18.60;64.40;;;;;;6345120;22;20486;-85
2023/02/23 07:01:20;;;;;;;17.00;11.47;;;18.60;64.40;;;;;;6344549;22;20403;-84
2023/02/23 07:03:49;;;;;;;17.67;11.47;;;18.60;64.30;;;;;;6345287;22;20454;-85
2023/02/23 07:06:17;;;;;;;16.87;11.20;;;18.60;64.40;;;;;;6345640;22;20461;-84
2023/02/23 07:08:45;;;;;;;20.50;11.50;;;18.60;64.30;;;;;;6342867;22;20410;-83
2023/02/23 07:11:14;;;;;;;22.70;11.60;;;18.60;64.40;;;;;;6342576;22;20425;-84
2023/02/23 07:13:45;;;;;;;20.30;12.57;;;18.60;64.50;;;;;;6344812;22;20491;-83
2023/02/23 07:16:15;;;;;;;17.10;11.27;;;18.60;64.50;;;;;;6345346;22;20479;-83
2023/02/23 07:18:43;;;;;;;17.80;11.50;;;18.60;64.40;;;;;;6345048;22;20403;-84
2023/02/23 07:21:11;;;;;;;16.83;11.03;;;18.60;64.70;;;;;;6342034;22;20427;-83
2023/02/23 07:23:39;;;;;;;20.87;12.17;;;18.60;64.40;;;;;;6342077;22;20438;-84
2023/02/23 07:26:08;;;;;;;19.57;11.90;;;18.60;64.40;;;;;;6341770;22;20418;-83
2023/02/23 07:28:37;;;;;;;19.90;11.97;;;18.60;64.60;;;;;;6341636;22;20410;-83
2023/02/23 07:31:06;;;;;;;17.73;11.97;;;18.60;64.50;;;;;;6341381;22;20410;-83
2023/02/23 07:33:34;;;;;;;16.90;10.93;;;18.60;64.40;;;;;;6341151;22;20419;-84
2023/02/23 07:36:02;;;;;;;18.90;12.33;;;18.60;64.50;;;;;;6340916;22;20482;-83
2023/02/23 07:38:30;;;;;;;18.00;11.50;;;18.60;64.40;;;;;;6340472;22;20410;-83
2023/02/23 07:40:58;;;;;;;20.23;12.10;;;18.50;64.40;;;;;;6342011;22;20475;-83
2023/02/23 07:43:27;;;;;;;17.40;11.40;;;18.60;64.50;;;;;;6344541;22;20443;-84
2023/02/23 07:45:55;;;;;;;18.80;12.40;;;18.60;64.50;;;;;;6344651;22;20435;-84
2023/02/23 07:48:30;;;;;;;20.03;11.57;;;18.60;64.50;;;;;;6346015;22;20396;-84
2023/02/23 07:51:01;;;;;;;20.90;12.03;;;18.60;64.50;;;;;;6344791;22;20427;-84
2023/02/23 07:53:30;;;;;;;20.10;12.50;;;18.50;64.40;;;;;;6343385;22;20420;-84
2023/02/23 07:55:59;;;;;;;17.50;11.17;;;18.60;64.60;;;;;;6342500;22;20891;-83
2023/02/23 07:58:27;;;;;;;20.10;12.20;;;18.60;64.60;;;;;;6342959;22;20403;-83
2023/02/23 08:00:56;;;;;;;22.20;12.50;;;18.60;64.60;;;;;;6341567;22;20403;-83
2023/02/23 08:03:25;;;;;;;18.50;11.73;;;18.60;64.50;;;;;;6346641;22;20423;-85
2023/02/23 08:05:54;;;;;;;19.47;11.97;;;18.60;64.30;;;;;;6344407;22;20475;-83
2023/02/23 08:08:23;;;;;;;17.80;11.23;;;18.60;64.40;;;;;;6345465;22;20403;-83
2023/02/23 08:10:51;;;;;;;18.90;11.27;;;18.60;64.60;;;;;;6346235;22;20403;-85
2023/02/23 08:13:18;;;;;;;17.97;11.60;;;18.60;64.40;;;;;;6345610;22;20423;-84
2023/02/23 08:15:46;;;;;;;19.53;11.73;;;18.60;64.60;;;;;;6344748;22;20423;-84
2023/02/23 08:18:14;;;;;;;20.47;12.37;;;18.60;64.40;;;;;;6353134;22;20478;-84
2023/02/23 08:20:42;;;;;;;19.73;12.77;;;18.60;64.50;;;;;;6346548;22;20430;-83
2023/02/23 08:23:12;;;;;;;19.23;11.90;;;18.60;64.50;;;;;;6344291;22;20411;-83
2023/02/23 08:25:40;;;;;;;20.30;12.03;;;18.60;64.60;;;;;;6343089;22;20431;-83
2023/02/23 08:28:08;;;;;;;21.60;12.23;;;18.60;64.50;;;;;;6343767;22;20410;-83
2023/02/23 08:30:36;;;;;;;22.03;11.90;;;18.60;64.50;;;;;;6345221;22;20494;-86
2023/02/23 08:33:05;;;;;;;18.00;11.20;;;18.60;64.60;;;;;;6343683;22;20423;-84
2023/02/23 08:35:33;;;;;;;18.30;11.80;;;18.60;64.40;;;;;;6346234;22;20894;-81
2023/02/23 08:38:01;;;;;;;73.77;30.40;;;18.60;64.60;;;;;;6349386;22;20404;-82
2023/02/23 08:40:31;;;;;;;95.37;38.23;;;17.50;59.10;;;;;;6353278;22;20399;-82
2023/02/23 08:42:59;;;;;;;88.93;37.50;;;16.10;62.00;;;;;;6353200;22;20487;-82
2023/02/23 08:45:30;;;;;;;106.90;39.40;;;14.60;67.10;;;;;;6352797;22;20462;-81
2023/02/23 08:47:58;;;;;;;109.83;38.70;;;13.70;69.90;;;;;;6354136;22;20471;-81
2023/02/23 08:50:26;;;;;;;113.73;39.10;;;13.50;71.80;;;;;;6354808;22;20641;-82
2023/02/23 08:52:55;;;;;;;114.23;39.87;;;13.50;74.00;;;;;;6354935;22;20458;-82
2023/02/23 08:55:23;;;;;;;110.60;40.80;;;13.90;74.30;;;;;;6354542;22;20467;-82
2023/02/23 08:57:52;;;;;;;110.47;38.40;;;14.10;73.60;;;;;;6351692;22;20403;-83
2023/02/23 09:00:21;;;;;;;108.10;38.13;;;13.60;73.20;;;;;;6351227;22;20491;-80
2023/02/23 09:02:49;;;;;;;116.70;39.73;;;13.70;75.20;;;;;;6351744;22;20404;-83
2023/02/23 09:05:17;;;;;;;133.07;47.17;;;13.40;76.10;;;;;;6352241;22;20431;-78
2023/02/23 09:07:45;;;;;;;108.43;42.03;;;13.50;79.00;;;;;;6343178;22;20461;-82
2023/02/23 09:10:14;;;;;;;108.33;41.10;;;14.40;86.90;;;;;;6341917;22;20404;-82
2023/02/23 09:12:42;;;;;;;95.67;38.10;;;15.20;83.50;;;;;;6342638;22;20498;-82
2023/02/23 09:15:12;;;;;;;104.60;39.20;;;15.90;79.80;;;;;;6341383;22;20399;-83
2023/02/23 09:17:43;;;;;;;105.87;38.43;;;16.40;77.10;;;;;;6342973;22;20438;-83
2023/02/23 09:20:14;;;;;;;98.77;39.37;;;16.70;73.70;;;;;;6343069;22;20459;-83
2023/02/23 09:22:44;;;;;;;98.73;38.63;;;17.00;71.60;;;;;;6341299;22;20429;-82
2023/02/23 09:25:13;;;;;;;94.30;36.60;;;17.20;69.80;;;;;;6342199;22;20436;-82
2023/02/23 09:27:41;;;;;;;85.13;35.33;;;17.40;68.50;;;;;;6341672;22;20411;-83
2023/02/23 09:30:16;;;;;;;87.43;35.10;;;17.60;67.50;;;;;;6341645;22;20407;-82
2023/02/23 09:32:45;;;;;;;85.80;34.30;;;17.70;66.70;;;;;;6341849;22;20403;-82
2023/02/23 09:35:16;;;;;;;78.03;33.77;;;17.80;66.10;;;;;;6342747;22;20388;-83
2023/02/23 09:37:45;;;;;;;73.60;32.80;;;17.90;65.50;;;;;;6343202;22;20376;-83
2023/02/23 09:40:15;;;;;;;71.43;31.07;;;18.00;64.90;;;;;;6343237;22;20391;-82
2023/02/23 09:42:47;;;;;;;71.43;31.60;;;18.00;64.60;;;;;;6341988;22;20391;-83
2023/02/23 09:45:24;;;;;;;75.93;32.30;;;18.10;64.30;;;;;;6341863;22;20431;-80
2023/02/23 09:48:08;;;;;;;69.77;31.60;;;18.10;64.00;;;;;;6341483;22;20486;-83
2023/02/23 09:50:37;;;;;;;63.60;29.30;;;18.20;63.80;;;;;;6341388;22;20399;-82
2023/02/23 09:53:07;;;;;;;66.97;30.10;;;18.30;63.70;;;;;;6341717;22;20420;-82
2023/02/23 09:55:40;;;;;;;60.43;28.67;;;18.40;63.60;;;;;;6342048;22;20376;-82
2023/02/23 09:58:12;;;;;;;65.70;28.50;;;18.50;63.30;;;;;;6342653;22;20456;-82
2023/02/23 10:00:44;;;;;;;57.47;27.67;;;18.50;63.10;;;;;;6342308;22;20435;-82
2023/02/23 10:03:17;;;;;;;60.60;27.03;;;18.50;62.70;;;;;;6341792;22;20423;-82
2023/02/23 10:05:47;;;;;;;56.33;26.93;;;18.50;62.60;;;;;;6342127;22;20431;-82
2023/02/23 10:08:20;;;;;;;61.47;27.20;;;18.60;62.60;;;;;;6341696;22;20404;-82
2023/02/23 10:10:49;;;;;;;57.87;26.17;;;18.60;62.60;;;;;;6343705;22;20438;-82
2023/02/23 10:13:21;;;;;;;49.13;25.03;;;18.60;62.50;;;;;;6344337;22;20505;-81
2023/02/23 10:15:54;;;;;;;51.23;25.63;;;18.60;62.30;;;;;;6340812;22;20396;-82
2023/02/23 10:18:30;;;;;;;48.57;24.13;;;18.70;62.30;;;;;;6341062;22;20419;-83
2023/02/23 10:21:15;;;;;;;49.67;24.50;;;18.60;62.10;;;;;;6341961;22;20376;-83
2023/02/23 10:23:45;;;;;;;54.50;25.30;;;18.70;62.40;;;;;;6340734;22;20443;-80
2023/02/23 10:26:16;;;;;;;48.53;23.33;;;18.70;62.10;;;;;;6340637;22;20405;-82
2023/02/23 10:32:39;;;;;;;50.87;23.30;;;18.70;61.90;;;;;;6333021;22;20410;-80
2023/02/23 10:35:10;;;;;;;48.57;22.43;;;18.60;61.90;;;;;;6342919;22;20396;-84
2023/02/23 10:37:38;;;;;;;47.60;23.17;;;18.70;62.20;;;;;;6342744;22;20407;-83
2023/02/23 10:40:07;;;;;;;46.60;23.20;;;18.70;62.00;;;;;;6342805;22;20482;-82
2023/02/23 10:42:35;;;;;;;40.40;21.33;;;18.70;61.90;;;;;;6341096;22;20399;-84
2023/02/23 10:45:06;;;;;;;45.73;22.87;;;18.70;62.10;;;;;;6341875;22;20427;-81
2023/02/23 10:47:36;;;;;;;46.20;21.93;;;18.70;62.00;;;;;;6341425;22;20470;-81
2023/02/23 10:50:05;;;;;;;45.67;22.33;;;18.70;61.90;;;;;;6340512;22;20403;-81
2023/02/23 10:52:35;;;;;;;42.40;21.83;;;18.70;62.20;;;;;;6340149;22;20403;-81
2023/02/23 10:55:23;;;;;;;42.23;20.60;;;18.70;62.10;;;;;;6342853;22;20379;-83
2023/02/23 10:58:21;;;;;;;46.53;21.47;;;18.70;62.10;;;;;;6350423;22;20396;-83
2023/02/23 11:00:56;;;;;;;39.83;21.17;;;18.70;62.10;;;;;;6353322;22;20425;-83
2023/02/23 11:03:30;;;;;;;44.37;22.87;;;18.70;62.20;;;;;;6344757;22;20495;-82
2023/02/23 11:05:58;;;;;;;44.17;21.03;;;18.80;62.40;;;;;;6341298;22;20426;-80
2023/02/23 11:08:29;;;;;;;39.00;21.03;;;18.70;62.20;;;;;;6338770;22;20413;-80
2023/02/23 11:11:02;;;;;;;38.17;20.10;;;18.80;62.40;;;;;;6341578;22;20382;-82
2023/02/23 11:13:37;;;;;;;39.40;19.33;;;18.80;62.30;;;;;;6346467;22;20463;-82
2023/02/23 11:16:18;;;;;;;43.40;20.40;;;18.80;62.20;;;;;;6345531;22;20372;-82
2023/02/23 11:18:54;;;;;;;41.73;18.77;;;18.90;62.40;;;;;;6343974;22;20410;-82
2023/02/23 11:21:32;;;;;;;42.03;20.60;;;18.90;62.10;;;;;;6342988;22;20427;-82
2023/02/23 11:24:04;;;;;;;40.60;20.30;;;18.90;62.40;;;;;;6351304;22;20430;-82
2023/02/23 11:26:36;;;;;;;36.03;17.20;;;18.90;62.10;;;;;;6347298;22;20495;-83
2023/02/23 11:29:11;;;;;;;34.87;18.00;;;18.90;62.40;;;;;;6344516;22;20469;-85
2023/02/23 11:31:39;;;;;;;41.63;20.17;;;18.90;62.30;;;;;;6346746;22;20434;-83
2023/02/23 11:34:27;;;;;;;33.97;17.80;;;18.80;62.40;;;;;;6347434;22;20445;-83
2023/02/23 11:37:01;;;;;;;41.40;18.53;;;18.90;62.40;;;;;;6347348;22;20399;-83
2023/02/23 11:39:30;;;;;;;42.47;18.50;;;18.90;62.40;;;;;;6348232;22;20400;-82
2023/02/23 11:42:10;;;;;;;39.70;18.80;;;18.80;62.40;;;;;;6347699;22;20404;-82
2023/02/23 11:44:38;;;;;;;36.70;18.70;;;18.80;62.50;;;;;;6347341;22;20430;-83
2023/02/23 11:47:06;;;;;;;34.70;17.37;;;18.80;62.70;;;;;;6347905;22;20458;-83
2023/02/23 11:49:37;;;;;;;33.73;17.80;;;18.80;62.60;;;;;;6348107;22;20403;-83
2023/02/23 11:52:12;;;;;;;32.10;17.73;;;18.80;62.60;;;;;;6348421;22;20478;-82
2023/02/23 11:54:51;;;;;;;34.43;17.20;;;18.80;63.30;;;;;;6347258;22;20430;-82
2023/02/23 11:57:32;;;;;;;36.40;17.87;;;18.80;62.60;;;;;;6347597;22;20423;-83
2023/02/23 12:00:02;;;;;;;39.37;18.07;;;18.80;62.80;;;;;;6348885;22;20446;-83
2023/02/23 12:02:30;;;;;;;36.90;17.80;;;18.80;62.80;;;;;;6347666;22;20423;-83
2023/02/23 12:05:07;;;;;;;31.00;15.67;;;18.90;62.70;;;;;;6347597;22;20403;-83
2023/02/23 12:07:40;;;;;;;34.73;17.03;;;18.90;62.90;;;;;;6347048;22;20525;-83
2023/02/23 12:10:14;;;;;;;32.27;17.17;;;18.90;62.80;;;;;;6347418;22;20456;-83
2023/02/23 12:13:06;;;;;;;34.70;16.63;;;18.80;62.80;;;;;;6349087;22;20465;-81
2023/02/23 12:15:42;;;;;;;35.10;16.77;;;18.90;62.90;;;;;;6347754;22;20399;-82
2023/02/23 12:18:18;;;;;;;34.10;16.60;;;18.90;62.90;;;;;;6346400;22;20474;-82
2023/02/23 12:20:48;;;;;;;35.53;17.63;;;18.90;62.70;;;;;;6348704;22;20405;-83
2023/02/23 12:23:18;;;;;;;32.67;17.13;;;18.90;63.00;;;;;;6347894;22;20419;-83
2023/02/23 12:25:47;;;;;;;34.27;16.77;;;18.90;62.80;;;;;;6347503;22;20407;-83
2023/02/23 12:28:19;;;;;;;33.43;16.03;;;18.90;62.70;;;;;;6346517;22;20409;-83
2023/02/23 12:30:50;;;;;;;34.43;16.40;;;18.90;62.90;;;;;;6347318;22;20404;-83
2023/02/23 12:33:21;;;;;;;39.63;16.07;;;18.90;62.60;;;;;;6347095;22;20512;-83
2023/02/23 12:35:53;;;;;;;34.97;16.80;;;18.90;62.90;;;;;;6346815;22;20411;-82
2023/02/23 12:38:32;;;;;;;37.57;16.57;;;18.90;62.80;;;;;;6347305;22;20406;-83
2023/02/23 12:41:03;;;;;;;31.30;16.03;;;18.90;62.70;;;;;;6346659;22;20403;-83
2023/02/23 12:43:36;;;;;;;30.57;15.70;;;18.90;62.90;;;;;;6347182;22;20458;-83
2023/02/23 12:46:07;;;;;;;30.40;15.90;;;19.00;63.00;;;;;;6346940;22;20427;-83
2023/02/23 12:48:38;;;;;;;33.10;16.03;;;19.00;62.90;;;;;;6347442;22;20403;-83
2023/02/23 12:51:12;;;;;;;29.60;15.90;;;19.00;62.90;;;;;;6346973;22;20410;-83
2023/02/23 12:53:41;;;;;;;30.17;15.87;;;19.00;62.90;;;;;;6347370;22;20423;-84
2023/02/23 12:56:32;;;;;;;36.97;16.83;;;19.00;62.90;;;;;;6347282;22;20419;-83
2023/02/23 12:59:07;;;;;;;33.47;15.97;;;19.00;62.90;;;;;;6340543;22;20405;-83
2023/02/23 13:01:36;;;;;;;32.30;15.80;;;19.00;63.10;;;;;;6348861;22;20399;-84
2023/02/23 13:04:25;;;;;;;24.63;14.27;;;19.00;62.90;;;;;;6347827;22;20443;-83
2023/02/23 13:06:58;;;;;;;29.20;15.13;;;19.10;62.90;;;;;;6339765;22;20423;-83
2023/02/23 13:09:35;;;;;;;31.50;16.83;;;19.20;62.60;;;;;;6346145;22;20412;-82
2023/02/23 13:12:26;;;;;;;28.97;15.97;;;19.20;62.80;;;;;;6346922;22;20888;-84
2023/02/23 13:15:01;;;;;;;31.67;14.43;;;19.20;62.90;;;;;;6345549;22;20423;-84
2023/02/23 13:17:34;;;;;;;32.90;15.10;;;19.20;62.60;;;;;;6346424;22;20422;-83
2023/02/23 13:20:04;;;;;;;29.17;14.80;;;19.20;62.80;;;;;;6347860;22;20410;-83
2023/02/23 13:22:36;;;;;;;30.93;15.57;;;19.20;62.70;;;;;;6343065;22;20498;-82
2023/02/23 13:25:13;;;;;;;29.33;15.40;;;19.20;62.70;;;;;;6342213;22;20403;-81
2023/02/23 13:27:43;;;;;;;28.70;14.00;;;19.20;62.60;;;;;;6344791;22;20427;-82
2023/02/23 13:30:12;;;;;;;24.40;13.53;;;19.30;62.70;;;;;;6343841;22;20402;-82
2023/02/23 13:32:40;;;;;;;27.77;14.23;;;19.30;62.60;;;;;;6343763;22;20403;-82
2023/02/23 13:35:13;;;;;;;26.87;13.43;;;19.30;62.60;;;;;;6346931;22;20404;-82
2023/02/23 13:37:44;;;;;;;23.40;13.60;;;19.30;62.60;;;;;;6347669;22;20395;-82
2023/02/23 13:40:22;;;;;;;26.90;14.50;;;19.30;62.70;;;;;;6346715;22;20657;-82
2023/02/23 13:42:57;;;;;;;23.90;14.47;;;19.30;62.70;;;;;;6347924;22;20379;-82
2023/02/23 13:45:43;;;;;;;30.43;14.60;;;19.30;62.70;;;;;;6344902;22;20422;-81
2023/02/23 13:48:27;;;;;;;24.90;14.13;;;19.30;62.70;;;;;;6342912;22;20490;-81
2023/02/23 13:50:59;;;;;;;25.50;13.00;;;19.30;62.70;;;;;;6343288;22;20526;-82
2023/02/23 13:53:58;;;;;;;22.30;13.63;;;19.30;62.70;;;;;;6342344;22;20414;-82
2023/02/23 13:56:28;;;;;;;26.10;14.37;;;19.40;62.70;;;;;;6343908;22;20399;-82
2023/02/23 13:58:59;;;;;;;27.67;14.13;;;19.30;62.60;;;;;;6342942;22;20424;-82
2023/02/23 14:01:31;;;;;;;26.87;13.10;;;19.40;62.70;;;;;;6340219;22;20486;-82
2023/02/23 14:04:00;;;;;;;23.10;13.33;;;19.40;62.70;;;;;;6342285;22;20506;-81
2023/02/23 14:06:30;;;;;;;24.63;13.00;;;19.40;62.80;;;;;;6340605;22;20403;-83
2023/02/23 14:09:01;;;;;;;22.93;13.37;;;19.40;62.70;;;;;;6343431;22;20464;-82
2023/02/23 14:11:39;;;;;;;25.63;13.27;;;19.40;62.60;;;;;;6345545;22;20395;-82
2023/02/23 14:14:07;;;;;;;23.37;12.80;;;19.40;62.60;;;;;;6343009;22;20458;-82
2023/02/23 14:16:35;;;;;;;19.27;11.90;;;19.40;62.70;;;;;;6344132;22;20403;-83
2023/02/23 14:19:31;;;;;;;22.10;12.13;;;19.40;62.70;;;;;;6345914;22;20422;-83
2023/02/23 14:22:04;;;;;;;21.47;13.00;;;19.40;62.70;;;;;;6344593;22;20470;-83
2023/02/23 14:24:32;;;;;;;24.97;14.07;;;19.40;62.90;;;;;;6344242;22;20950;-83
2023/02/23 14:27:33;;;;;;;22.27;12.93;;;19.40;62.90;;;;;;6345150;22;20434;-83
2023/02/23 14:30:17;;;;;;;21.83;12.77;;;19.40;62.80;;;;;;6352868;22;20376;-82
2023/02/23 14:32:47;;;;;;;20.53;11.83;;;19.40;62.70;;;;;;6350955;22;20395;-82